Time;durP1;ratioP1;P1;durP2;ratioP2;P2;SDS_P1;SDS_P2;PMS_P1;PMS_P2;Temp;Humidity;BMP_temperature;BMP_pressure;BME280_temperature;BME280_humidity;BME280_pressure;Samples;Min_cycle;Max_cycle;Signal;HPM_P1;HPM_P2
2022/08/16 00:01:19;;;;;;;8.18;7.50;;;21.80;99.90;;;;;;4933267;29;20662;-46
2022/08/16 00:03:45;;;;;;;8.05;7.20;;;21.80;99.90;;;;;;4936575;28;20113;-50
2022/08/16 00:06:11;;;;;;;7.80;7.10;;;21.70;99.90;;;;;;4929554;28;20044;-46
2022/08/16 00:08:37;;;;;;;8.07;7.38;;;21.70;99.90;;;;;;4936887;28;20036;-48
2022/08/16 00:11:09;;;;;;;8.52;7.65;;;21.70;99.90;;;;;;4927548;29;20024;-48
2022/08/16 00:13:34;;;;;;;8.73;7.15;;;21.70;99.90;;;;;;4941667;29;20500;-47
2022/08/16 00:16:00;;;;;;;8.05;7.13;;;21.70;99.90;;;;;;4933581;28;20102;-48
2022/08/16 00:18:26;;;;;;;8.30;7.60;;;21.60;99.90;;;;;;4936381;29;20106;-51
2022/08/16 00:20:52;;;;;;;7.93;7.22;;;21.60;99.90;;;;;;4934812;28;20167;-49
2022/08/16 00:23:17;;;;;;;7.90;7.10;;;21.60;99.90;;;;;;4934600;29;20024;-49
2022/08/16 00:25:43;;;;;;;8.27;7.47;;;21.60;99.90;;;;;;4933025;29;20039;-47
2022/08/16 00:28:09;;;;;;;7.85;7.05;;;21.60;99.90;;;;;;4923733;29;20062;-46
2022/08/16 00:30:34;;;;;;;8.07;7.35;;;21.60;99.90;;;;;;4929487;29;20540;-49
2022/08/16 00:33:01;;;;;;;8.48;7.68;;;21.50;99.90;;;;;;4924876;29;20028;-51
2022/08/16 00:35:38;;;;;;;8.43;7.63;;;21.60;99.90;;;;;;4923925;29;20480;-48
2022/08/16 00:38:05;;;;;;;8.98;8.13;;;21.60;99.90;;;;;;4929722;29;20023;-48
2022/08/16 00:40:47;;;;;;;7.60;6.85;;;21.50;99.90;;;;;;4927660;29;20028;-50
2022/08/16 00:43:19;;;;;;;8.00;7.30;;;21.50;99.90;;;;;;4925982;29;20132;-49
2022/08/16 00:46:10;;;;;;;8.40;7.60;;;21.60;99.90;;;;;;4923359;29;20531;-48
2022/08/16 00:48:36;;;;;;;8.00;7.20;;;21.60;99.90;;;;;;4923369;29;20517;-47
2022/08/16 00:51:03;;;;;;;6.85;6.25;;;21.50;99.90;;;;;;4924985;29;20472;-48
2022/08/16 00:53:29;;;;;;;8.93;8.00;;;21.60;99.90;;;;;;4922416;29;20036;-49
2022/08/16 00:55:58;;;;;;;7.72;7.03;;;21.50;99.90;;;;;;4930945;29;20522;-49
2022/08/16 00:58:26;;;;;;;7.40;6.80;;;21.50;99.90;;;;;;4918906;29;20036;-50
2022/08/16 01:00:53;;;;;;;9.93;7.68;;;21.50;99.90;;;;;;4924195;29;20032;-47
2022/08/16 01:03:21;;;;;;;7.78;7.07;;;21.50;99.90;;;;;;4923975;29;20074;-50
2022/08/16 01:05:47;;;;;;;7.25;6.65;;;21.50;99.90;;;;;;4942841;28;20623;-49
2022/08/16 01:08:15;;;;;;;6.88;6.28;;;21.50;99.90;;;;;;4933813;29;20078;-47
2022/08/16 01:10:41;;;;;;;8.93;8.05;;;21.40;99.90;;;;;;4926303;29;20032;-48
2022/08/16 01:13:15;;;;;;;9.10;8.20;;;21.40;99.90;;;;;;4921610;29;20229;-47
2022/08/16 01:15:46;;;;;;;8.18;7.53;;;21.30;99.90;;;;;;4927610;29;20024;-49
2022/08/16 01:18:16;;;;;;;8.48;7.78;;;21.40;99.90;;;;;;4924210;29;20067;-50
2022/08/16 01:20:50;;;;;;;8.02;7.22;;;21.30;99.90;;;;;;4922791;29;20505;-48
2022/08/16 01:23:54;;;;;;;8.15;7.43;;;21.30;99.90;;;;;;4928001;29;20024;-46
2022/08/16 01:26:20;;;;;;;8.88;8.05;;;21.40;99.90;;;;;;4916327;29;20039;-47
2022/08/16 01:28:47;;;;;;;8.77;7.97;;;21.30;99.90;;;;;;4925760;29;20038;-48
2022/08/16 01:31:15;;;;;;;7.97;7.28;;;21.20;99.90;;;;;;4919732;29;20026;-47
2022/08/16 01:33:41;;;;;;;9.55;8.73;;;21.20;99.90;;;;;;4925255;29;20488;-47
2022/08/16 01:36:08;;;;;;;9.60;8.63;;;21.20;99.90;;;;;;4919179;29;20488;-47
2022/08/16 01:38:40;;;;;;;8.65;7.82;;;21.20;99.90;;;;;;4925788;29;20023;-46
2022/08/16 01:41:11;;;;;;;9.55;8.65;;;21.20;99.90;;;;;;4933281;29;20024;-48
2022/08/16 01:43:40;;;;;;;8.68;7.80;;;21.10;99.90;;;;;;4925230;29;20048;-47
2022/08/16 01:46:28;;;;;;;9.20;8.27;;;21.10;99.90;;;;;;4930151;29;20054;-48
2022/08/16 01:49:06;;;;;;;8.30;7.60;;;21.00;99.90;;;;;;4923693;29;20460;-47
2022/08/16 01:51:32;;;;;;;9.75;8.75;;;21.00;99.90;;;;;;4922213;29;20028;-47
2022/08/16 01:53:58;;;;;;;8.55;7.80;;;21.00;99.90;;;;;;4922585;29;20105;-47
2022/08/16 01:56:25;;;;;;;9.70;8.80;;;21.00;99.90;;;;;;4922064;29;20032;-47
2022/08/16 01:58:53;;;;;;;8.98;8.18;;;21.00;99.90;;;;;;4923934;29;20032;-47
2022/08/16 02:01:19;;;;;;;12.07;9.13;;;20.90;99.90;;;;;;4921872;29;20028;-48
2022/08/16 02:03:44;;;;;;;8.80;8.00;;;20.90;99.90;;;;;;4922407;29;20034;-49
2022/08/16 02:06:10;;;;;;;9.70;8.70;;;20.80;99.90;;;;;;4921995;29;20040;-49
2022/08/16 02:08:36;;;;;;;9.70;8.80;;;20.80;99.90;;;;;;4921927;29;20028;-46
2022/08/16 02:11:05;;;;;;;11.30;10.20;;;20.80;99.90;;;;;;4922306;29;20030;-47
2022/08/16 02:13:31;;;;;;;8.45;7.75;;;20.80;99.90;;;;;;4927618;29;20047;-49
2022/08/16 02:15:56;;;;;;;9.45;8.57;;;20.70;99.90;;;;;;4923960;29;20511;-46
2022/08/16 02:18:22;;;;;;;9.38;8.60;;;20.70;99.90;;;;;;4921732;29;20039;-48
2022/08/16 02:20:50;;;;;;;9.48;8.68;;;20.60;99.90;;;;;;4921783;29;20124;-52
2022/08/16 02:23:17;;;;;;;11.73;10.00;;;20.60;99.90;;;;;;4921347;29;20032;-48
2022/08/16 02:25:43;;;;;;;9.20;8.40;;;20.60;99.90;;;;;;4921800;29;20115;-48
2022/08/16 02:28:08;;;;;;;10.80;9.75;;;20.50;99.90;;;;;;4923134;29;20100;-48
2022/08/16 02:30:34;;;;;;;9.82;8.82;;;20.50;99.90;;;;;;4921414;29;20020;-49
2022/08/16 02:33:00;;;;;;;10.75;9.75;;;20.50;99.90;;;;;;4922128;29;20040;-46
2022/08/16 02:35:26;;;;;;;11.32;10.32;;;20.50;99.90;;;;;;4921394;29;20032;-49
2022/08/16 02:37:53;;;;;;;10.15;9.25;;;20.50;99.90;;;;;;4921613;29;20036;-47
2022/08/16 02:40:22;;;;;;;11.52;10.25;;;20.50;99.90;;;;;;4921404;29;20028;-49
2022/08/16 02:42:49;;;;;;;10.07;9.07;;;20.50;99.90;;;;;;4920967;29;20091;-50
2022/08/16 02:45:16;;;;;;;11.88;10.68;;;20.40;99.90;;;;;;4922118;29;20068;-49
2022/08/16 02:47:41;;;;;;;10.57;9.68;;;20.40;99.90;;;;;;4921563;29;20087;-46
2022/08/16 02:50:07;;;;;;;11.77;10.63;;;20.40;99.90;;;;;;4922147;29;20028;-51
2022/08/16 02:52:34;;;;;;;12.90;10.48;;;20.30;99.90;;;;;;4920948;29;20016;-47
2022/08/16 02:55:00;;;;;;;11.55;10.43;;;20.20;99.90;;;;;;4921052;29;20028;-46
2022/08/16 02:57:25;;;;;;;13.20;11.82;;;20.30;99.90;;;;;;4921346;29;20039;-47
2022/08/16 02:59:51;;;;;;;11.07;10.07;;;20.20;99.90;;;;;;4921562;29;20106;-48
2022/08/16 03:02:17;;;;;;;13.00;11.60;;;20.20;99.90;;;;;;4922259;29;20103;-49
2022/08/16 03:04:43;;;;;;;11.15;10.15;;;20.10;99.90;;;;;;4920630;29;20020;-46
2022/08/16 03:07:10;;;;;;;12.18;10.98;;;20.10;99.90;;;;;;4921440;29;20047;-50
2022/08/16 03:09:37;;;;;;;11.63;10.52;;;20.10;99.90;;;;;;4920908;29;20020;-46
2022/08/16 03:12:04;;;;;;;12.18;11.07;;;20.00;99.90;;;;;;4920635;29;20039;-48
2022/08/16 03:14:30;;;;;;;13.43;12.15;;;20.00;99.90;;;;;;4929207;29;20030;-47
2022/08/16 03:16:56;;;;;;;13.50;12.30;;;20.00;99.90;;;;;;4917356;29;20024;-46
2022/08/16 03:19:22;;;;;;;12.93;11.63;;;20.00;99.90;;;;;;4924040;29;20024;-46
2022/08/16 03:21:48;;;;;;;11.63;10.63;;;19.90;99.90;;;;;;4916333;29;20043;-47
2022/08/16 03:24:13;;;;;;;14.80;13.18;;;19.90;99.90;;;;;;4924173;29;20019;-49
2022/08/16 03:26:39;;;;;;;13.85;12.50;;;19.90;99.90;;;;;;4924068;29;20032;-48
2022/08/16 03:29:05;;;;;;;14.15;12.73;;;19.80;99.90;;;;;;4917961;29;20035;-46
2022/08/16 03:31:30;;;;;;;14.48;13.15;;;19.80;99.90;;;;;;4923858;29;20019;-46
2022/08/16 03:33:56;;;;;;;14.35;12.90;;;19.80;99.90;;;;;;4917404;29;20028;-47
2022/08/16 03:36:23;;;;;;;12.55;11.30;;;19.80;99.90;;;;;;4923723;29;20035;-47
2022/08/16 03:38:48;;;;;;;13.68;12.40;;;19.80;99.90;;;;;;4916458;29;20063;-48
2022/08/16 03:41:14;;;;;;;13.73;12.43;;;19.70;99.90;;;;;;4923172;29;20456;-46
2022/08/16 03:43:40;;;;;;;13.00;11.70;;;19.70;99.90;;;;;;4923810;29;20515;-47
2022/08/16 03:46:05;;;;;;;15.63;14.23;;;19.70;99.90;;;;;;4916329;29;20124;-48
2022/08/16 03:48:36;;;;;;;14.20;12.20;;;19.70;99.90;;;;;;4923577;29;20122;-47
2022/08/16 03:51:04;;;;;;;15.43;13.93;;;19.70;99.90;;;;;;4916848;29;20068;-47
2022/08/16 03:53:30;;;;;;;14.52;13.02;;;19.60;99.90;;;;;;4923426;29;20015;-47
2022/08/16 03:55:55;;;;;;;14.23;12.82;;;19.60;99.90;;;;;;4917245;29;20456;-48
2022/08/16 03:58:21;;;;;;;13.38;12.18;;;19.60;99.90;;;;;;4926348;29;20024;-48
2022/08/16 04:00:48;;;;;;;13.38;12.15;;;19.50;99.90;;;;;;4927670;29;20042;-48
2022/08/16 04:03:13;;;;;;;15.13;13.60;;;19.50;99.90;;;;;;4921056;29;20024;-47
2022/08/16 04:05:44;;;;;;;14.32;12.82;;;19.50;99.90;;;;;;4926727;29;20167;-47
2022/08/16 04:08:12;;;;;;;15.27;13.85;;;19.40;99.90;;;;;;4920433;29;20032;-47
2022/08/16 04:10:38;;;;;;;13.65;12.40;;;19.40;99.90;;;;;;4927155;29;20045;-48
2022/08/16 04:13:04;;;;;;;14.65;13.35;;;19.40;99.90;;;;;;4923148;29;20023;-46
2022/08/16 04:15:30;;;;;;;13.90;12.50;;;19.40;99.90;;;;;;4928314;29;20020;-52
2022/08/16 04:17:56;;;;;;;17.30;15.60;;;19.40;99.90;;;;;;4924815;29;20038;-47
2022/08/16 04:20:23;;;;;;;16.75;15.15;;;19.40;99.90;;;;;;4923809;29;20026;-48
2022/08/16 04:22:48;;;;;;;15.10;13.63;;;19.40;99.90;;;;;;4921978;29;20035;-48
2022/08/16 04:25:14;;;;;;;14.45;12.95;;;19.40;99.90;;;;;;4922698;29;20120;-48
2022/08/16 04:27:40;;;;;;;15.13;13.57;;;19.40;99.90;;;;;;4924333;29;20044;-46
2022/08/16 04:30:11;;;;;;;14.00;12.65;;;19.40;99.90;;;;;;4924892;29;20387;-47
2022/08/16 04:32:37;;;;;;;15.80;14.20;;;19.40;99.90;;;;;;4923907;29;20393;-50
2022/08/16 04:35:05;;;;;;;14.27;12.75;;;19.40;99.90;;;;;;4924925;29;20111;-53
2022/08/16 04:37:31;;;;;;;16.92;15.30;;;19.40;99.90;;;;;;4923851;29;20032;-45
2022/08/16 04:39:56;;;;;;;15.70;14.20;;;19.40;99.90;;;;;;4923796;29;20094;-47
2022/08/16 04:42:22;;;;;;;16.63;14.65;;;19.40;99.90;;;;;;4923310;29;20104;-52
2022/08/16 04:44:48;;;;;;;17.27;15.52;;;19.40;99.90;;;;;;4925242;29;20039;-47
2022/08/16 04:47:13;;;;;;;16.52;14.32;;;19.50;99.90;;;;;;4922156;29;20079;-48
2022/08/16 04:49:39;;;;;;;13.85;12.52;;;19.50;99.90;;;;;;4923404;29;20024;-47
2022/08/16 04:52:05;;;;;;;14.52;13.18;;;19.50;99.90;;;;;;4923929;29;20396;-49
2022/08/16 04:54:30;;;;;;;15.30;13.93;;;19.50;99.90;;;;;;4923359;29;20023;-50
2022/08/16 04:56:56;;;;;;;13.85;12.48;;;19.50;99.90;;;;;;4923416;29;20023;-47
2022/08/16 04:59:22;;;;;;;13.68;12.43;;;19.50;99.90;;;;;;4923049;29;20047;-47
2022/08/16 05:01:47;;;;;;;14.35;13.05;;;19.60;99.90;;;;;;4924495;29;20063;-47
2022/08/16 05:04:13;;;;;;;14.77;13.30;;;19.60;99.90;;;;;;4923045;29;20476;-51
2022/08/16 05:06:39;;;;;;;15.73;14.18;;;19.60;99.90;;;;;;4969748;23;20063;-61
2022/08/16 05:09:04;;;;;;;15.75;14.20;;;19.60;99.90;;;;;;4947886;28;20163;-61
2022/08/16 05:11:30;;;;;;;15.02;13.48;;;19.60;99.90;;;;;;4950968;28;20023;-60
2022/08/16 05:14:00;;;;;;;15.57;14.00;;;19.60;99.90;;;;;;4953189;28;20042;-60
2022/08/16 05:16:29;;;;;;;17.55;15.85;;;19.60;99.90;;;;;;4945899;29;20015;-59
2022/08/16 05:18:57;;;;;;;16.55;14.93;;;19.60;99.90;;;;;;4944753;28;20023;-60
2022/08/16 05:21:23;;;;;;;15.68;13.93;;;19.70;99.90;;;;;;4947339;29;20027;-61
2022/08/16 05:23:51;;;;;;;15.93;14.25;;;19.70;99.90;;;;;;4945317;28;20555;-60
2022/08/16 05:26:17;;;;;;;17.02;15.27;;;19.80;99.90;;;;;;4941773;29;20083;-59
2022/08/16 05:28:42;;;;;;;18.98;16.98;;;19.80;99.90;;;;;;4945740;29;20031;-59
2022/08/16 05:31:08;;;;;;;17.52;15.65;;;19.80;99.90;;;;;;4942483;28;20019;-61
2022/08/16 05:33:33;;;;;;;16.35;14.73;;;19.80;99.90;;;;;;4946524;29;20079;-59
2022/08/16 05:35:59;;;;;;;15.45;13.90;;;19.80;99.90;;;;;;4943590;28;20398;-60
2022/08/16 05:38:28;;;;;;;17.38;15.57;;;19.90;99.90;;;;;;4946194;29;20051;-60
2022/08/16 05:40:54;;;;;;;17.15;15.45;;;19.90;99.90;;;;;;4944463;28;20027;-60
2022/08/16 05:43:20;;;;;;;18.50;16.20;;;20.00;99.90;;;;;;4937922;29;20020;-60
2022/08/16 05:45:46;;;;;;;20.85;18.00;;;20.00;99.90;;;;;;4944011;29;20502;-59
2022/08/16 05:48:12;;;;;;;20.38;17.13;;;20.10;99.90;;;;;;4941613;28;20484;-60
2022/08/16 05:50:38;;;;;;;18.85;16.85;;;20.10;99.90;;;;;;4947087;29;20028;-58
2022/08/16 05:53:04;;;;;;;17.13;15.40;;;20.10;99.90;;;;;;4942791;28;20027;-60
2022/08/16 05:55:30;;;;;;;17.42;15.65;;;20.10;99.90;;;;;;4946733;29;20023;-60
2022/08/16 05:57:55;;;;;;;17.60;15.57;;;20.10;99.90;;;;;;4942478;28;20053;-59
2022/08/16 06:00:21;;;;;;;19.42;14.98;;;20.20;99.90;;;;;;4941314;29;20024;-62
2022/08/16 06:02:46;;;;;;;17.30;15.50;;;20.20;99.90;;;;;;4946738;29;20031;-61
2022/08/16 06:05:12;;;;;;;14.70;13.35;;;20.30;99.90;;;;;;4940687;28;20499;-58
2022/08/16 06:07:38;;;;;;;15.80;14.20;;;20.30;99.90;;;;;;4946372;29;20122;-62
2022/08/16 06:10:05;;;;;;;16.80;14.85;;;20.30;99.90;;;;;;4941149;29;20023;-60
2022/08/16 06:12:31;;;;;;;17.65;15.02;;;20.40;99.90;;;;;;4936130;29;20023;-61
2022/08/16 06:15:00;;;;;;;16.73;14.98;;;20.40;99.90;;;;;;4938461;29;20034;-61
2022/08/16 06:17:26;;;;;;;16.63;14.98;;;20.50;99.90;;;;;;4946205;28;20028;-62
2022/08/16 06:19:52;;;;;;;18.50;15.52;;;20.50;99.90;;;;;;4941624;28;20102;-59
2022/08/16 06:22:17;;;;;;;17.30;15.52;;;20.50;99.90;;;;;;4947144;28;20111;-61
2022/08/16 06:24:43;;;;;;;14.10;12.70;;;20.50;99.90;;;;;;4940581;29;20079;-60
2022/08/16 06:27:09;;;;;;;16.50;14.85;;;20.60;99.90;;;;;;4943436;29;20046;-62
2022/08/16 06:29:35;;;;;;;15.88;14.38;;;20.70;99.90;;;;;;4944320;28;20500;-61
2022/08/16 06:32:01;;;;;;;17.08;14.98;;;20.70;99.90;;;;;;4942176;29;20126;-62
2022/08/16 06:34:26;;;;;;;18.80;15.93;;;20.80;99.90;;;;;;4944412;28;20558;-61
2022/08/16 06:36:52;;;;;;;17.40;15.32;;;20.90;99.90;;;;;;4941005;29;20087;-62
2022/08/16 06:39:18;;;;;;;17.67;15.90;;;21.00;99.90;;;;;;4947590;28;20373;-60
2022/08/16 06:41:43;;;;;;;17.60;15.70;;;21.00;99.90;;;;;;4940037;29;20088;-61
2022/08/16 06:44:09;;;;;;;17.23;15.38;;;21.10;99.90;;;;;;4942992;29;20094;-60
2022/08/16 06:46:36;;;;;;;17.98;15.13;;;21.20;99.90;;;;;;4943476;28;20019;-60
2022/08/16 06:49:04;;;;;;;15.27;13.88;;;21.20;99.90;;;;;;4942008;29;20027;-61
2022/08/16 06:51:30;;;;;;;17.38;15.68;;;21.30;99.90;;;;;;4944885;28;20369;-60
2022/08/16 06:53:56;;;;;;;15.68;14.23;;;21.30;99.90;;;;;;4941499;29;20099;-60
2022/08/16 06:56:21;;;;;;;15.98;14.38;;;21.40;99.90;;;;;;4947106;28;20043;-61
2022/08/16 06:58:47;;;;;;;16.60;14.70;;;21.40;99.90;;;;;;4940357;29;20036;-60
2022/08/16 07:01:13;;;;;;;19.70;14.77;;;21.50;99.90;;;;;;4943322;29;20119;-59
2022/08/16 07:03:38;;;;;;;17.60;15.18;;;21.50;99.90;;;;;;4943359;28;20103;-60
2022/08/16 07:06:04;;;;;;;16.67;14.93;;;21.70;99.90;;;;;;4941972;29;20035;-61
2022/08/16 07:08:30;;;;;;;14.32;12.88;;;21.80;99.90;;;;;;4945783;28;20020;-61
2022/08/16 07:10:57;;;;;;;13.55;12.15;;;22.10;99.90;;;;;;4941031;29;20032;-60
2022/08/16 07:13:23;;;;;;;14.93;13.55;;;22.30;99.90;;;;;;4942214;28;20023;-61
2022/08/16 07:15:49;;;;;;;14.43;12.15;;;22.50;99.90;;;;;;4942410;28;20083;-60
2022/08/16 07:18:18;;;;;;;13.30;12.05;;;22.70;99.90;;;;;;4943145;28;20023;-61
2022/08/16 07:20:44;;;;;;;14.48;11.90;;;22.90;99.90;;;;;;4943002;28;20027;-59
2022/08/16 07:23:10;;;;;;;13.52;12.18;;;23.00;99.90;;;;;;4942134;28;20031;-59
2022/08/16 07:25:35;;;;;;;14.93;11.93;;;23.20;99.90;;;;;;4942965;28;20456;-60
2022/08/16 07:28:01;;;;;;;11.80;10.52;;;23.30;99.90;;;;;;4941171;28;20028;-59
2022/08/16 07:30:28;;;;;;;9.93;8.88;;;23.50;99.90;;;;;;4942642;28;20019;-59
2022/08/16 07:32:54;;;;;;;12.70;9.63;;;23.60;99.90;;;;;;4941474;28;20106;-60
2022/08/16 07:35:20;;;;;;;10.40;7.82;;;23.80;99.90;;;;;;4943185;28;20059;-61
2022/08/16 07:37:45;;;;;;;8.88;8.07;;;23.90;99.90;;;;;;4943242;28;20436;-58
2022/08/16 07:40:12;;;;;;;8.90;8.10;;;23.90;99.90;;;;;;4942805;28;20740;-59
2022/08/16 07:42:37;;;;;;;10.68;7.47;;;24.10;99.90;;;;;;4942584;28;20031;-61
2022/08/16 07:45:04;;;;;;;9.85;8.13;;;24.10;99.90;;;;;;4941096;28;20030;-60
2022/08/16 07:47:30;;;;;;;7.25;6.55;;;24.10;99.90;;;;;;4942664;28;20038;-60
2022/08/16 07:49:56;;;;;;;7.78;6.97;;;24.20;99.90;;;;;;4941612;28;20086;-60
2022/08/16 07:52:22;;;;;;;10.80;7.05;;;24.20;99.90;;;;;;4942427;28;20016;-60
2022/08/16 07:54:47;;;;;;;7.78;7.05;;;24.20;99.90;;;;;;4942620;28;20100;-61
2022/08/16 07:57:13;;;;;;;6.78;6.15;;;24.20;99.90;;;;;;4942567;28;20298;-59
2022/08/16 07:59:39;;;;;;;6.75;6.03;;;24.30;99.90;;;;;;4941546;28;20427;-61
2022/08/16 08:02:05;;;;;;;7.32;6.72;;;24.30;99.90;;;;;;4940560;28;20030;-60
2022/08/16 08:04:32;;;;;;;9.43;7.05;;;24.30;99.90;;;;;;4942782;28;20071;-58
2022/08/16 08:06:58;;;;;;;6.88;6.18;;;24.30;99.90;;;;;;4941315;28;20511;-59
2022/08/16 08:09:24;;;;;;;7.47;6.30;;;24.40;99.90;;;;;;4946224;28;20074;-61
2022/08/16 08:11:50;;;;;;;8.27;6.90;;;24.50;99.90;;;;;;4942409;28;20082;-59
2022/08/16 08:14:15;;;;;;;7.80;6.22;;;24.50;99.90;;;;;;4938718;28;20607;-59
2022/08/16 08:16:41;;;;;;;7.65;6.93;;;24.60;99.90;;;;;;4943814;29;20122;-58
2022/08/16 08:19:11;;;;;;;7.72;7.03;;;24.70;99.90;;;;;;4940206;28;20063;-59
2022/08/16 08:21:39;;;;;;;7.57;6.88;;;24.80;99.90;;;;;;4945094;29;20028;-58
2022/08/16 08:24:06;;;;;;;7.05;6.35;;;25.10;99.90;;;;;;4940484;28;20028;-59
2022/08/16 08:26:32;;;;;;;7.45;6.75;;;25.20;99.90;;;;;;4938020;29;20047;-58
2022/08/16 08:28:58;;;;;;;6.60;5.97;;;25.30;99.90;;;;;;4943808;29;20028;-59
2022/08/16 08:31:23;;;;;;;5.75;5.18;;;25.30;99.90;;;;;;4932231;29;20028;-60
2022/08/16 08:33:49;;;;;;;7.60;6.07;;;25.30;99.90;;;;;;4946167;29;20059;-59
2022/08/16 08:36:22;;;;;;;6.97;6.35;;;25.30;99.90;;;;;;4939211;29;20020;-61
2022/08/16 08:38:49;;;;;;;6.88;6.28;;;25.30;99.90;;;;;;4947231;29;20027;-58
2022/08/16 08:41:15;;;;;;;7.15;6.10;;;25.30;99.90;;;;;;4934964;29;20027;-59
2022/08/16 08:43:41;;;;;;;6.35;5.72;;;25.20;99.90;;;;;;4941243;29;20028;-59
2022/08/16 08:46:07;;;;;;;7.95;6.18;;;25.30;99.90;;;;;;4948664;29;20027;-59
2022/08/16 08:48:33;;;;;;;6.78;6.18;;;25.40;99.90;;;;;;4942696;29;20039;-58
2022/08/16 08:50:58;;;;;;;6.93;5.93;;;25.70;99.90;;;;;;4949640;29;20459;-58
2022/08/16 08:53:25;;;;;;;5.55;4.90;;;26.00;99.90;;;;;;4942201;29;20047;-61
2022/08/16 08:55:51;;;;;;;7.30;4.97;;;26.30;99.90;;;;;;4950100;29;20015;-61
2022/08/16 08:58:16;;;;;;;9.30;5.53;;;26.60;99.90;;;;;;4942115;29;20031;-60
2022/08/16 09:00:42;;;;;;;5.93;5.25;;;26.80;99.90;;;;;;4942425;29;20363;-60
2022/08/16 09:03:08;;;;;;;5.03;4.07;;;26.90;99.20;;;;;;4948122;29;20023;-59
2022/08/16 09:05:34;;;;;;;5.45;4.93;;;27.10;99.40;;;;;;4941879;29;20092;-61
2022/08/16 09:07:59;;;;;;;6.18;5.32;;;27.30;99.20;;;;;;4949171;29;20472;-60
2022/08/16 09:10:25;;;;;;;5.78;5.15;;;27.40;99.40;;;;;;4942223;29;20024;-60
2022/08/16 09:12:51;;;;;;;7.40;5.65;;;27.40;98.60;;;;;;4941476;29;20396;-60
2022/08/16 09:15:16;;;;;;;6.38;5.78;;;27.50;98.50;;;;;;4945552;28;20023;-58
2022/08/16 09:17:42;;;;;;;6.15;5.25;;;27.50;97.40;;;;;;4945275;28;20063;-60
2022/08/16 09:20:12;;;;;;;6.15;5.55;;;27.60;97.80;;;;;;4944602;29;20035;-60
2022/08/16 09:22:39;;;;;;;6.85;5.22;;;27.60;97.90;;;;;;4946449;28;20558;-60
2022/08/16 09:25:05;;;;;;;6.43;5.82;;;27.70;97.80;;;;;;4944237;29;20114;-58
2022/08/16 09:27:31;;;;;;;7.10;6.53;;;27.70;97.50;;;;;;4944897;28;20391;-61
2022/08/16 09:29:57;;;;;;;6.28;5.68;;;27.50;96.90;;;;;;4942865;28;20024;-61
2022/08/16 09:32:22;;;;;;;5.63;5.10;;;27.50;97.20;;;;;;4945088;28;20511;-61
2022/08/16 09:34:48;;;;;;;6.45;5.88;;;27.40;97.10;;;;;;4943976;28;20024;-60
2022/08/16 09:37:14;;;;;;;5.22;4.80;;;27.50;97.40;;;;;;4931375;29;20106;-58
2022/08/16 09:39:41;;;;;;;6.03;5.40;;;27.60;98.00;;;;;;4945731;28;20028;-59
2022/08/16 09:42:07;;;;;;;6.55;5.75;;;27.70;97.30;;;;;;4943537;29;20031;-62
2022/08/16 09:44:32;;;;;;;6.00;5.50;;;27.60;96.50;;;;;;4945205;28;20023;-61
2022/08/16 09:46:58;;;;;;;6.05;5.55;;;27.40;96.50;;;;;;4942924;28;20026;-60
2022/08/16 09:49:25;;;;;;;7.53;5.88;;;27.30;96.50;;;;;;4945211;28;20066;-59
2022/08/16 09:51:53;;;;;;;6.70;6.10;;;27.30;96.90;;;;;;4943356;28;20042;-59
2022/08/16 09:54:20;;;;;;;5.75;5.35;;;27.50;96.60;;;;;;4943216;28;20015;-60
2022/08/16 09:56:49;;;;;;;6.25;5.22;;;27.60;95.70;;;;;;4945003;28;20054;-61
2022/08/16 09:59:15;;;;;;;7.68;5.30;;;27.50;96.30;;;;;;4932246;29;20031;-60
2022/08/16 10:01:43;;;;;;;6.88;5.10;;;27.60;95.60;;;;;;4943836;28;20038;-61
2022/08/16 10:04:10;;;;;;;6.05;5.50;;;27.50;95.20;;;;;;4943641;29;20023;-61
2022/08/16 10:06:36;;;;;;;5.47;4.97;;;27.60;95.70;;;;;;4945985;28;20031;-59
2022/08/16 10:09:07;;;;;;;7.00;4.70;;;27.70;94.90;;;;;;4943291;28;20027;-60
2022/08/16 10:14:22;;;;;;;5.70;5.20;;;27.70;94.80;;;;;;4940709;29;20497;-59
2022/08/16 10:16:48;;;;;;;6.38;4.88;;;27.70;94.70;;;;;;4947673;29;20093;-59
2022/08/16 10:19:14;;;;;;;6.65;5.05;;;27.80;95.10;;;;;;4941017;28;20407;-60
2022/08/16 10:21:40;;;;;;;5.72;4.85;;;27.90;95.00;;;;;;4946659;29;20604;-61
2022/08/16 10:24:07;;;;;;;5.22;4.65;;;28.00;94.60;;;;;;4942096;28;20031;-61
2022/08/16 10:26:34;;;;;;;4.85;4.10;;;27.90;94.10;;;;;;4940972;29;20039;-59
2022/08/16 10:29:01;;;;;;;8.18;4.57;;;28.00;93.40;;;;;;4945728;29;20081;-59
2022/08/16 10:31:26;;;;;;;5.32;4.18;;;28.00;93.20;;;;;;4940787;29;20024;-60
2022/08/16 10:33:53;;;;;;;4.57;4.18;;;28.10;93.90;;;;;;4948059;29;20029;-58
2022/08/16 10:36:19;;;;;;;6.95;5.18;;;28.10;92.90;;;;;;4939454;29;20015;-60
2022/08/16 10:38:45;;;;;;;4.43;4.13;;;28.00;93.00;;;;;;4951476;29;20092;-62
2022/08/16 10:41:12;;;;;;;5.28;4.78;;;28.00;93.20;;;;;;4943487;28;20031;-61
2022/08/16 10:43:39;;;;;;;6.03;4.45;;;27.90;92.80;;;;;;4940879;29;20052;-60
2022/08/16 10:46:08;;;;;;;6.55;5.20;;;27.70;93.00;;;;;;4946681;29;20115;-60
2022/08/16 10:48:35;;;;;;;6.10;5.50;;;27.70;93.60;;;;;;4940613;29;20038;-57
2022/08/16 10:51:00;;;;;;;7.70;4.97;;;27.80;93.70;;;;;;4946307;29;20487;-60
2022/08/16 10:53:30;;;;;;;5.60;5.00;;;27.80;93.80;;;;;;4940463;29;20115;-60
2022/08/16 10:55:58;;;;;;;5.43;4.90;;;27.90;93.60;;;;;;4948542;29;20321;-59
2022/08/16 10:58:24;;;;;;;7.68;6.57;;;28.00;93.70;;;;;;4940622;29;20018;-61
2022/08/16 11:00:50;;;;;;;5.95;5.45;;;28.20;94.00;;;;;;4940820;29;20099;-59
2022/08/16 11:03:16;;;;;;;7.13;5.57;;;28.20;93.40;;;;;;4945033;28;20115;-60
2022/08/16 11:05:42;;;;;;;5.50;4.95;;;28.10;92.60;;;;;;4939551;28;20055;-60
2022/08/16 11:08:10;;;;;;;5.82;5.32;;;27.90;92.70;;;;;;4980902;23;20039;-47
2022/08/16 11:10:39;;;;;;;7.28;6.68;;;27.80;93.10;;;;;;4962434;28;20023;-46
2022/08/16 11:13:06;;;;;;;9.20;5.93;;;27.70;93.40;;;;;;4956523;28;20038;-50
2022/08/16 11:15:33;;;;;;;5.70;5.18;;;27.60;94.10;;;;;;4959145;28;20031;-50
2022/08/16 11:17:59;;;;;;;5.47;5.00;;;27.40;94.50;;;;;;4961136;28;20093;-51
2022/08/16 11:20:25;;;;;;;5.30;4.90;;;27.40;93.80;;;;;;4968347;28;20026;-48
2022/08/16 11:22:52;;;;;;;6.40;5.60;;;27.30;94.10;;;;;;4964457;28;20053;-47
2022/08/16 11:25:21;;;;;;;5.95;5.43;;;27.40;94.00;;;;;;4967381;28;20110;-50
2022/08/16 11:27:47;;;;;;;5.75;5.25;;;27.40;94.20;;;;;;4969522;28;20027;-50
2022/08/16 11:30:15;;;;;;;5.82;5.20;;;27.60;94.60;;;;;;4966577;28;20018;-49
2022/08/16 11:32:43;;;;;;;5.85;4.57;;;27.70;93.80;;;;;;4968852;28;20380;-51
2022/08/16 11:35:18;;;;;;;6.03;5.15;;;28.00;93.70;;;;;;4964977;28;20023;-50
2022/08/16 11:37:54;;;;;;;4.95;4.55;;;28.20;92.70;;;;;;4968888;28;20031;-51
2022/08/16 11:40:22;;;;;;;4.90;4.45;;;28.40;92.00;;;;;;4965152;28;20027;-48
2022/08/16 11:42:47;;;;;;;4.82;4.30;;;28.50;92.00;;;;;;4967299;28;20042;-51
2022/08/16 11:45:13;;;;;;;7.80;4.78;;;28.40;91.20;;;;;;4969462;28;20388;-48
2022/08/16 11:47:39;;;;;;;5.15;4.68;;;28.50;92.10;;;;;;4966365;28;20022;-50
2022/08/16 11:50:07;;;;;;;5.10;4.70;;;28.50;91.90;;;;;;4968861;28;20081;-50
2022/08/16 11:52:34;;;;;;;7.38;4.53;;;28.40;91.80;;;;;;4965384;28;20023;-51
2022/08/16 11:55:01;;;;;;;6.43;5.47;;;28.40;91.50;;;;;;4967751;28;20513;-48
2022/08/16 11:57:27;;;;;;;7.15;5.28;;;28.40;91.60;;;;;;4964496;28;20035;-48
2022/08/16 11:59:53;;;;;;;5.22;4.78;;;28.50;92.60;;;;;;4966405;28;20027;-50
2022/08/16 12:02:19;;;;;;;5.10;4.35;;;28.60;90.80;;;;;;4962337;28;20026;-48
2022/08/16 12:04:45;;;;;;;5.38;4.70;;;28.50;91.70;;;;;;4966160;28;20165;-47
2022/08/16 12:07:11;;;;;;;5.22;4.43;;;28.60;91.40;;;;;;4968516;28;20451;-47
2022/08/16 12:09:37;;;;;;;4.80;4.40;;;28.70;91.60;;;;;;4965693;28;20158;-45
2022/08/16 12:12:03;;;;;;;5.60;4.40;;;28.70;91.60;;;;;;4967395;28;20490;-48
2022/08/16 12:14:30;;;;;;;5.80;5.22;;;28.70;91.20;;;;;;4964478;28;20031;-48
2022/08/16 12:16:58;;;;;;;6.32;5.43;;;28.70;91.00;;;;;;4970037;28;20023;-50
2022/08/16 12:19:24;;;;;;;5.57;4.93;;;28.70;91.30;;;;;;4967204;28;20656;-49
2022/08/16 12:21:50;;;;;;;6.55;4.88;;;28.60;91.50;;;;;;4972784;28;20031;-53
2022/08/16 12:24:16;;;;;;;6.95;5.50;;;28.60;91.60;;;;;;4965573;28;20027;-48
2022/08/16 12:26:41;;;;;;;5.68;5.18;;;28.50;91.30;;;;;;4972794;28;20035;-46
2022/08/16 12:29:07;;;;;;;5.70;5.10;;;28.40;91.70;;;;;;4970921;28;20054;-46
2022/08/16 12:31:32;;;;;;;6.47;5.20;;;28.40;92.00;;;;;;4970387;28;20047;-51
2022/08/16 12:33:58;;;;;;;5.97;4.45;;;28.50;92.10;;;;;;4972018;28;20551;-46
2022/08/16 12:36:25;;;;;;;5.70;5.20;;;28.50;92.60;;;;;;4966155;28;20029;-49
2022/08/16 12:38:51;;;;;;;5.60;5.10;;;28.50;92.60;;;;;;4973062;28;20033;-51